Time;durP1;ratioP1;P1;durP2;ratioP2;P2;SDS_P1;SDS_P2;PMS_P1;PMS_P2;Temp;Humidity;BMP_temperature;BMP_pressure;BME280_temperature;BME280_humidity;BME280_pressure;Samples;Min_cycle;Max_cycle;Signal;HPM_P1;HPM_P2
2023/05/18 00:01:13;;;;;;;4.83;1.90;;;;;;;3.38;100.00;101979.44;5006604;28;20061;-79
2023/05/18 00:03:40;;;;;;;3.17;1.90;;;;;;;3.32;100.00;101974.88;4990305;28;20053;-79
2023/05/18 00:06:08;;;;;;;4.10;1.97;;;;;;;3.26;100.00;101981.66;4970852;28;20045;-76
2023/05/18 00:08:36;;;;;;;6.27;2.77;;;;;;;3.24;100.00;101984.22;4992148;28;20061;-81
2023/05/18 00:11:04;;;;;;;3.77;1.70;;;;;;;3.18;100.00;101991.84;5019939;28;20723;-82
2023/05/18 00:13:31;;;;;;;3.47;2.03;;;;;;;3.20;100.00;101981.47;4980092;28;20041;-82
2023/05/18 00:15:58;;;;;;;4.20;1.90;;;;;;;3.09;100.00;101991.56;5027052;28;20392;-82
2023/05/18 00:18:28;;;;;;;6.00;2.00;;;;;;;3.01;100.00;101986.09;5009149;28;20061;-79
2023/05/18 00:21:36;;;;;;;3.10;1.70;;;;;;;3.06;100.00;101994.09;5014923;28;20049;-80
2023/05/18 00:25:11;;;;;;;6.27;2.23;;;;;;;3.02;100.00;101992.22;5037224;28;20175;-80
2023/05/18 00:29:03;;;;;;;2.83;1.80;;;;;;;2.81;100.00;101995.94;5012193;28;20153;-80
2023/05/18 00:32:43;;;;;;;3.87;2.30;;;;;;;2.79;100.00;101997.59;5024699;28;20129;-80
2023/05/18 00:36:19;;;;;;;6.13;2.13;;;;;;;2.88;100.00;101998.75;5012157;28;20060;-80
2023/05/18 00:44:52;;;;;;;4.83;2.17;;;;;;;2.86;100.00;102006.53;5001462;28;20057;-80
2023/05/18 00:49:10;;;;;;;3.30;1.53;;;;;;;2.66;100.00;102005.84;5006353;28;20045;-79
2023/05/18 00:53:35;;;;;;;2.47;1.63;;;;;;;2.58;100.00;102015.16;4974720;28;20059;-80
2023/05/18 00:58:21;;;;;;;3.83;1.93;;;;;;;2.52;100.00;102010.63;4952409;28;20050;-80
2023/05/18 01:28:17;;;;;;;3.10;1.80;;;;;;;2.16;100.00;102020.66;4871712;29;20045;-80
2023/05/18 01:32:16;;;;;;;3.27;1.67;;;;;;;2.12;100.00;102033.53;4926188;29;20046;-79
2023/05/18 01:52:15;;;;;;;3.45;1.70;;;;;;;1.85;100.00;102042.13;4889022;29;20043;-81
2023/05/18 01:55:13;;;;;;;3.90;1.87;;;;;;;1.88;100.00;102039.63;4879739;29;20049;-81
2023/05/18 01:58:27;;;;;;;4.27;2.17;;;;;;;1.91;100.00;102039.72;4912521;29;20230;-80
2023/05/18 02:01:59;;;;;;;2.93;1.90;;;;;;;1.81;100.00;102042.84;4908569;29;20054;-80
2023/05/18 02:09:53;;;;;;;2.63;1.47;;;;;;;1.82;100.00;102042.00;4980871;28;20191;-80
2023/05/18 02:21:51;;;;;;;4.70;1.97;;;;;;;1.61;100.00;102036.88;4998544;28;20053;-79
2023/05/18 02:25:36;;;;;;;3.40;1.80;;;;;;;1.68;100.00;102033.69;5017218;28;20066;-80
2023/05/18 02:28:40;;;;;;;3.80;2.10;;;;;;;1.71;100.00;102042.44;5016395;28;20060;-79
2023/05/18 02:32:03;;;;;;;3.17;1.85;;;;;;;1.56;100.00;102034.94;5015833;28;20084;-80
2023/05/18 02:38:58;;;;;;;4.03;1.63;;;;;;;1.32;100.00;102033.16;5018956;28;20070;-79
2023/05/18 02:42:21;;;;;;;3.60;1.57;;;;;;;1.21;100.00;102034.44;5021922;28;20068;-80
2023/05/18 02:50:58;;;;;;;3.30;1.90;;;;;;;1.24;100.00;102050.19;4996223;28;20099;-80
2023/05/18 03:02:16;;;;;;;3.53;1.57;;;;;;;1.13;100.00;102057.56;4999594;28;20066;-80
2023/05/18 03:05:59;;;;;;;4.00;2.10;;;;;;;1.12;100.00;102061.00;4998856;28;20042;-80
2023/05/18 03:17:58;;;;;;;3.70;1.87;;;;;;;1.04;100.00;102062.41;4977951;28;20551;-80
2023/05/18 03:21:32;;;;;;;4.07;2.13;;;;;;;0.98;100.00;102072.56;5013615;28;20056;-80
2023/05/18 03:38:49;;;;;;;5.30;2.33;;;;;;;1.20;100.00;102068.25;4995129;28;20049;-80
2023/05/18 03:47:07;;;;;;;2.73;2.07;;;;;;;1.32;100.00;102076.53;4997623;28;20129;-80
2023/05/18 03:51:03;;;;;;;3.30;1.63;;;;;;;1.49;100.00;102074.59;5014426;28;20065;-80
2023/05/18 03:59:10;;;;;;;2.87;1.47;;;;;;;1.65;100.00;102080.44;4994865;28;20101;-79
2023/05/18 04:02:57;;;;;;;3.80;1.93;;;;;;;1.79;100.00;102082.69;4994633;28;20128;-80
2023/05/18 04:07:08;;;;;;;4.67;1.97;;;;;;;1.91;100.00;102091.84;4994946;28;20112;-79
2023/05/18 04:11:00;;;;;;;2.83;1.73;;;;;;;2.10;100.00;102090.84;4995619;28;20042;-79
2023/05/18 04:14:31;;;;;;;3.67;1.83;;;;;;;2.25;100.00;102087.88;5016699;28;20056;-80
2023/05/18 04:18:21;;;;;;;4.80;1.70;;;;;;;2.39;100.00;102096.22;4993677;28;20634;-80
2023/05/18 04:22:23;;;;;;;6.10;1.77;;;;;;;2.45;100.00;102097.31;4993435;28;20069;-79
2023/05/18 04:26:04;;;;;;;4.27;1.80;;;;;;;2.62;100.00;102097.91;4996402;28;20049;-79
2023/05/18 04:38:34;;;;;;;3.87;1.70;;;;;;;3.06;100.00;102102.03;4885218;29;20056;-80
2023/05/18 04:45:50;;;;;;;5.30;2.10;;;;;;;3.22;100.00;102098.19;4912181;29;20054;-80
2023/05/18 04:54:08;;;;;;;4.90;1.52;;;;;;;3.39;100.00;102110.09;4885791;29;20072;-80
2023/05/18 04:58:19;;;;;;;3.57;1.90;;;;;;;3.68;100.00;102113.59;4894827;29;20397;-80
2023/05/18 05:06:43;;;;;;;2.47;1.70;;;;;;;3.95;100.00;102108.34;4914281;29;20055;-80
2023/05/18 05:10:29;;;;;;;2.47;1.77;;;;;;;4.14;100.00;102103.63;4922501;29;20042;-80
2023/05/18 05:17:39;;;;;;;3.43;2.07;;;;;;;4.46;100.00;102105.44;4957044;29;20056;-79
2023/05/18 05:21:23;;;;;;;4.80;1.70;;;;;;;4.99;100.00;102110.31;4958866;29;20092;-80
2023/05/18 05:24:03;;;;;;;4.20;1.93;;;;;;;5.05;100.00;102118.34;4936452;29;20116;-80
2023/05/18 05:26:30;;;;;;;4.10;1.90;;;;;;;5.15;100.00;102116.81;4953794;28;20511;-80
2023/05/18 05:28:57;;;;;;;3.70;2.10;;;;;;;5.26;100.00;102120.59;4951473;28;20112;-81
2023/05/18 05:31:24;;;;;;;5.33;2.53;;;;;;;6.15;100.00;102126.19;4983418;28;20043;-81
2023/05/18 05:33:50;;;;;;;3.37;1.43;;;;;;;7.35;100.00;102124.91;4984730;28;20038;-81
2023/05/18 05:36:17;;;;;;;4.10;2.17;;;;;;;8.03;100.00;102124.16;4974343;28;20129;-81
2023/05/18 05:38:44;;;;;;;4.57;1.53;;;;;;;8.57;99.32;102125.72;4975290;28;20038;-80
2023/05/18 05:41:10;;;;;;;4.50;2.00;;;;;;;8.81;94.43;102125.09;4959217;28;20418;-81
2023/05/18 05:43:37;;;;;;;3.00;2.00;;;;;;;8.70;96.02;102117.97;4992115;28;20109;-78
2023/05/18 05:46:04;;;;;;;6.67;1.87;;;;;;;8.71;93.99;102117.09;4988414;28;20055;-81
2023/05/18 05:48:31;;;;;;;6.20;1.70;;;;;;;8.51;94.34;102126.56;4989441;28;20084;-81
2023/05/18 05:50:57;;;;;;;3.63;1.90;;;;;;;8.37;97.69;102117.59;4959024;28;20065;-82
2023/05/18 05:53:24;;;;;;;5.27;2.60;;;;;;;8.45;98.62;102126.47;4958397;28;20070;-80
2023/05/18 05:55:51;;;;;;;4.80;2.57;;;;;;;9.33;93.96;102121.16;4973620;28;20152;-80
2023/05/18 05:58:17;;;;;;;5.90;2.35;;;;;;;10.97;80.72;102129.03;4985179;28;20411;-82
2023/05/18 06:00:45;;;;;;;4.78;1.92;;;;;;;12.08;73.55;102127.19;5008523;28;20038;-80
2023/05/18 06:03:12;;;;;;;10.45;3.08;;;;;;;12.43;67.31;102132.34;5007504;28;21798;-81
2023/05/18 06:05:42;;;;;;;5.00;1.83;;;;;;;13.15;64.81;102118.66;4988494;28;20129;-81
2023/05/18 06:08:08;;;;;;;5.80;2.58;;;;;;;13.57;61.89;102125.41;5007845;28;20038;-80
2023/05/18 06:10:35;;;;;;;5.90;2.00;;;;;;;13.82;63.17;102128.69;5003142;28;20041;-79
2023/05/18 06:13:02;;;;;;;5.75;2.08;;;;;;;13.96;61.81;102129.44;4993870;28;20061;-79
2023/05/18 06:15:28;;;;;;;4.95;2.08;;;;;;;14.04;61.32;102129.31;5011422;28;20042;-79
2023/05/18 06:17:55;;;;;;;6.63;2.80;;;;;;;13.85;61.27;102131.31;4990287;28;20088;-80
2023/05/18 06:20:22;;;;;;;4.72;1.90;;;;;;;13.75;59.98;102127.88;5010167;28;20411;-80
2023/05/18 06:22:49;;;;;;;4.28;1.83;;;;;;;14.01;62.23;102122.28;5003412;28;20045;-81
2023/05/18 06:25:17;;;;;;;6.43;2.00;;;;;;;13.93;58.86;102125.91;5018731;28;20518;-81
2023/05/18 06:27:44;;;;;;;5.22;2.20;;;;;;;13.81;59.40;102126.94;5003453;28;20041;-81
2023/05/18 06:30:11;;;;;;;5.47;2.70;;;;;;;13.96;58.32;102121.47;5009461;28;20517;-81
2023/05/18 06:32:38;;;;;;;6.18;2.30;;;;;;;13.88;58.77;102133.94;4979908;28;20048;-82
2023/05/18 06:35:06;;;;;;;5.82;2.83;;;;;;;13.95;60.20;102130.31;4992773;28;20296;-80
2023/05/18 06:37:32;;;;;;;8.38;2.40;;;;;;;14.09;59.40;102125.72;5003066;28;20120;-79
2023/05/18 06:39:59;;;;;;;7.53;2.40;;;;;;;14.10;59.21;102131.91;4991168;28;20038;-80
2023/05/18 06:42:26;;;;;;;7.60;2.55;;;;;;;13.94;59.22;102139.16;4979911;28;20042;-80
2023/05/18 06:44:53;;;;;;;5.18;2.25;;;;;;;13.44;58.53;102137.88;5000679;28;20034;-81
2023/05/18 06:47:19;;;;;;;5.32;1.80;;;;;;;13.93;63.59;102137.41;5001604;28;20039;-81
2023/05/18 06:49:46;;;;;;;3.97;1.85;;;;;;;14.07;60.05;102139.94;5020280;28;20042;-81
2023/05/18 06:52:13;;;;;;;5.72;2.65;;;;;;;13.83;60.46;102141.06;5008136;28;20042;-79
2023/05/18 06:54:40;;;;;;;5.80;2.53;;;;;;;14.00;59.66;102139.13;4992672;28;20060;-79
2023/05/18 06:57:09;;;;;;;11.43;3.17;;;;;;;14.09;59.20;102144.31;4994014;28;20045;-79
2023/05/18 06:59:52;;;;;;;5.55;1.60;;;;;;;13.48;61.32;102149.38;4977729;28;20591;-79
2023/05/18 07:02:20;;;;;;;6.03;2.38;;;;;;;14.10;62.51;102145.19;4991279;28;20463;-79
2023/05/18 07:05:10;;;;;;;6.07;2.75;;;;;;;14.14;58.29;102138.09;4994938;28;20038;-79
2023/05/18 07:08:10;;;;;;;6.03;4.97;;;;;;;14.56;55.91;102150.88;4993443;28;20065;-78
2023/05/18 07:10:37;;;;;;;5.35;1.92;;;;;;;14.25;55.33;102150.34;5007693;28;20497;-79
2023/05/18 07:13:03;;;;;;;5.82;2.45;;;;;;;13.84;57.70;102148.13;4992513;28;20045;-79
2023/05/18 07:15:30;;;;;;;4.38;2.13;;;;;;;12.90;58.02;102145.34;5010995;28;20046;-79
2023/05/18 07:17:57;;;;;;;5.13;2.50;;;;;;;12.90;62.75;102145.34;5002589;28;20038;-79
2023/05/18 07:20:24;;;;;;;7.07;2.67;;;;;;;12.96;63.81;102145.31;5009437;28;20042;-79
2023/05/18 07:22:54;;;;;;;6.45;2.50;;;;;;;12.95;60.20;102140.91;4993237;28;20049;-78
2023/05/18 07:25:21;;;;;;;6.60;2.30;;;;;;;12.92;61.71;102148.00;5008174;28;20048;-79
2023/05/18 07:27:53;;;;;;;9.38;2.33;;;;;;;12.89;61.60;102145.38;4980436;28;20061;-80
2023/05/18 07:30:41;;;;;;;3.70;1.70;;;;;;;12.81;63.17;102147.19;4997855;28;20062;-79
2023/05/18 07:33:12;;;;;;;6.55;2.25;;;;;;;12.79;63.84;102144.56;5000484;28;20050;-80
2023/05/18 07:35:44;;;;;;;6.63;1.90;;;;;;;12.58;64.01;102150.84;4982096;28;20069;-79
2023/05/18 07:38:13;;;;;;;4.82;2.40;;;;;;;12.59;64.16;102149.94;5002022;28;20103;-79
2023/05/18 07:40:51;;;;;;;4.57;1.77;;;;;;;12.49;61.89;102152.66;5028600;28;20080;-80
2023/05/18 07:43:29;;;;;;;6.80;2.90;;;;;;;12.42;62.52;102150.91;5001543;28;20259;-80
2023/05/18 07:46:10;;;;;;;7.07;2.42;;;;;;;12.55;59.98;102157.94;5020602;28;20052;-79
2023/05/18 07:48:44;;;;;;;5.53;2.42;;;;;;;12.32;60.83;102147.44;4994399;28;20034;-80
2023/05/18 07:51:17;;;;;;;7.72;2.00;;;;;;;12.38;59.96;102150.06;4998314;28;20042;-80
2023/05/18 07:53:45;;;;;;;4.72;1.73;;;;;;;12.48;62.36;102153.53;4990919;28;20138;-79
2023/05/18 07:56:25;;;;;;;6.07;1.85;;;;;;;13.08;64.74;102147.00;5012603;28;20046;-80
2023/05/18 07:58:56;;;;;;;5.57;1.80;;;;;;;13.85;62.04;102139.28;5000064;28;20054;-79
2023/05/18 08:01:37;;;;;;;5.30;1.58;;;;;;;14.14;53.20;102138.97;5011533;28;20065;-80
2023/05/18 08:04:12;;;;;;;117.25;99.70;;;;;;;14.13;52.42;102145.19;5021301;28;20038;-82
2023/05/18 08:06:41;;;;;;;7.85;5.50;;;;;;;14.14;52.95;102143.41;5014942;28;20132;-79
2023/05/18 08:09:08;;;;;;;75.00;11.50;;;;;;;13.93;54.03;102148.03;4982862;28;20088;-79
2023/05/18 08:11:35;;;;;;;7.72;2.10;;;;;;;13.73;52.74;102142.94;4976842;28;20072;-79
2023/05/18 08:14:13;;;;;;;5.45;2.13;;;;;;;13.72;53.75;102149.16;5016875;28;20061;-81
2023/05/18 08:17:05;;;;;;;7.50;2.28;;;;;;;13.70;55.69;102155.34;5015092;28;20052;-80
2023/05/18 08:19:33;;;;;;;5.10;2.10;;;;;;;13.77;55.66;102152.63;5001187;28;20056;-80
2023/05/18 08:22:00;;;;;;;9.98;2.95;;;;;;;13.84;51.37;102152.56;4999482;28;20049;-80
2023/05/18 08:24:35;;;;;;;8.35;2.10;;;;;;;13.55;54.92;102155.53;4997373;28;20049;-81
2023/05/18 08:27:42;;;;;;;3.72;2.13;;;;;;;13.64;54.02;102153.66;5048265;28;20054;-82
2023/05/18 08:30:20;;;;;;;4.68;2.10;;;;;;;13.75;52.28;102157.09;5017665;28;20053;-80
2023/05/18 08:33:10;;;;;;;5.15;1.77;;;;;;;13.63;51.23;102159.00;5020361;28;20045;-79
2023/05/18 08:35:38;;;;;;;6.03;1.95;;;;;;;13.78;48.93;102161.47;5009990;28;20038;-80
2023/05/18 08:38:05;;;;;;;4.72;2.10;;;;;;;13.72;48.74;102158.91;4993039;28;20273;-81
2023/05/18 08:40:36;;;;;;;8.15;2.55;;;;;;;14.29;52.20;102148.50;5008379;28;20030;-82
2023/05/18 08:43:10;;;;;;;5.80;1.85;;;;;;;14.83;50.34;102154.06;4983543;28;20050;-80
2023/05/18 08:45:45;;;;;;;;;;;;;;;15.29;46.92;102150.69;5009015;28;20045;-82
2023/05/18 08:48:11;;;;;;;4.00;1.70;;;;;;;15.88;45.81;102148.78;5006997;28;20399;-84
2023/05/18 08:50:40;;;;;;;11.75;3.47;;;;;;;16.41;45.67;102138.88;4993079;28;20038;-81
2023/05/18 08:53:08;;;;;;;4.70;1.83;;;;;;;16.05;45.69;102144.03;5018343;28;20110;-80
2023/05/18 08:55:36;;;;;;;5.38;2.50;;;;;;;16.19;43.80;102139.31;5008685;28;20688;-81
2023/05/18 08:58:05;;;;;;;5.63;1.83;;;;;;;16.17;43.95;102145.59;5001868;28;20046;-80
2023/05/18 09:00:32;;;;;;;4.82;1.60;;;;;;;16.04;43.23;102147.59;5001021;28;20046;-80
2023/05/18 09:03:01;;;;;;;3.13;1.50;;;;;;;15.75;44.00;102148.16;5003041;28;20029;-79
2023/05/18 09:05:27;;;;;;;3.95;1.52;;;;;;;15.43;43.75;102146.91;4984083;28;20038;-80
2023/05/18 09:07:55;;;;;;;4.90;1.92;;;;;;;15.54;44.87;102145.81;4988922;28;20053;-80
2023/05/18 09:10:23;;;;;;;5.93;1.95;;;;;;;15.51;44.29;102137.91;4986437;28;20038;-81
2023/05/18 09:12:49;;;;;;;5.05;1.75;;;;;;;15.51;44.23;102137.91;4996915;28;20050;-80
2023/05/18 09:15:17;;;;;;;4.85;1.60;;;;;;;15.42;45.03;102139.81;5017366;28;20073;-80
2023/05/18 09:17:44;;;;;;;3.42;1.60;;;;;;;15.53;44.22;102139.63;5016024;28;20121;-80
2023/05/18 09:20:11;;;;;;;5.25;1.90;;;;;;;15.16;43.96;102142.03;4980549;28;20050;-79
2023/05/18 09:22:40;;;;;;;23.27;3.72;;;;;;;14.49;46.01;102132.38;4982470;28;20100;-79
2023/05/18 09:25:08;;;;;;;7.18;1.70;;;;;;;15.09;45.92;102135.03;4979665;28;20041;-79
2023/05/18 09:27:34;;;;;;;4.60;1.75;;;;;;;15.35;46.82;102131.94;5002292;28;20049;-80
2023/05/18 09:30:02;;;;;;;6.30;1.70;;;;;;;14.77;45.87;102127.53;4997120;28;20034;-79
2023/05/18 09:32:33;;;;;;;4.78;2.05;;;;;;;15.12;46.36;102132.31;5000915;28;20475;-79
2023/05/18 09:35:05;;;;;;;4.55;1.73;;;;;;;15.24;46.60;102129.47;4970916;28;21183;-80
2023/05/18 09:37:32;;;;;;;4.80;1.40;;;;;;;15.17;47.07;102135.81;4986303;28;20100;-79
2023/05/18 09:40:01;;;;;;;5.68;1.60;;;;;;;15.20;44.37;102133.06;5007102;28;20033;-80
2023/05/18 09:42:41;;;;;;;3.92;1.80;;;;;;;15.35;43.90;102127.50;4988935;28;20558;-79
2023/05/18 09:45:19;;;;;;;4.65;1.60;;;;;;;16.04;45.26;102116.47;5007741;28;20129;-79
2023/05/18 09:47:48;;;;;;;6.05;1.60;;;;;;;16.26;42.68;102121.41;5006114;28;20042;-79
2023/05/18 09:50:22;;;;;;;6.45;1.65;;;;;;;16.26;43.58;102121.41;5007055;28;20042;-79
2023/05/18 09:52:49;;;;;;;4.50;1.58;;;;;;;16.19;43.00;102123.31;4991315;28;20044;-77
2023/05/18 09:55:19;;;;;;;31.55;5.95;;;;;;;15.88;42.94;102115.03;5003917;28;20038;-80
2023/05/18 09:57:48;;;;;;;4.63;2.05;;;;;;;15.65;43.04;102112.81;5007742;28;20042;-79
2023/05/18 10:00:17;;;;;;;2.53;1.27;;;;;;;15.64;43.05;102110.19;5009289;28;20042;-78
2023/05/18 10:02:47;;;;;;;4.00;1.60;;;;;;;15.88;41.77;102106.16;5002768;28;20719;-79
2023/05/18 10:05:32;;;;;;;4.50;1.40;;;;;;;16.16;42.46;102104.72;5005395;28;20702;-78
2023/05/18 10:08:01;;;;;;;4.07;1.77;;;;;;;16.50;41.48;102112.88;5005347;28;20061;-79
2023/05/18 10:10:28;;;;;;;6.13;1.60;;;;;;;17.01;40.01;102109.94;5002839;28;20042;-79
2023/05/18 10:12:57;;;;;;;4.43;1.70;;;;;;;17.35;39.68;102104.63;5002069;28;20115;-79
2023/05/18 10:15:24;;;;;;;4.15;2.60;;;;;;;17.44;39.11;102104.41;5002002;28;20037;-79
2023/05/18 10:17:55;;;;;;;3.80;1.60;;;;;;;17.16;39.83;102103.38;4990412;28;20046;-79
2023/05/18 10:20:23;;;;;;;4.32;1.73;;;;;;;16.57;39.74;102105.63;4967832;28;20109;-79
2023/05/18 10:22:50;;;;;;;4.95;1.85;;;;;;;16.33;39.95;102109.69;5003048;28;20034;-79
2023/05/18 10:25:19;;;;;;;5.57;1.55;;;;;;;16.24;40.95;102102.75;5006185;28;20101;-80
2023/05/18 10:27:48;;;;;;;5.20;1.65;;;;;;;16.34;41.29;102108.78;4991170;28;20073;-80
2023/05/18 10:30:16;;;;;;;5.55;1.80;;;;;;;16.55;41.08;102104.75;4987346;28;20168;-79
2023/05/18 10:32:44;;;;;;;4.57;1.77;;;;;;;16.34;40.12;102103.44;4972698;28;20044;-80
2023/05/18 10:35:12;;;;;;;5.65;1.67;;;;;;;16.36;40.28;102100.72;5008014;28;20038;-80
2023/05/18 10:37:43;;;;;;;4.63;2.30;;;;;;;16.63;40.31;102097.44;4987870;28;20102;-80
2023/05/18 10:40:10;;;;;;;4.97;1.40;;;;;;;16.55;40.06;102086.94;4988171;28;20136;-80
2023/05/18 10:42:38;;;;;;;5.43;1.77;;;;;;;16.47;40.75;102086.25;5025745;28;20034;-79
2023/05/18 10:45:06;;;;;;;4.50;1.80;;;;;;;16.32;40.42;102094.59;4990152;28;20054;-81
2023/05/18 10:47:38;;;;;;;2.72;1.40;;;;;;;16.24;41.07;102094.75;4993137;28;20057;-80
2023/05/18 10:50:05;;;;;;;4.60;2.67;;;;;;;16.42;41.97;102087.28;4987084;28;20046;-80
2023/05/18 10:52:33;;;;;;;3.88;1.45;;;;;;;16.74;41.34;102079.44;4993071;28;20076;-81
2023/05/18 10:55:00;;;;;;;4.63;1.63;;;;;;;16.61;39.72;102078.81;4991391;28;20045;-80
2023/05/18 10:57:37;;;;;;;6.65;1.98;;;;;;;17.33;39.90;102069.09;5006931;28;20471;-80
2023/05/18 11:00:06;;;;;;;2.30;1.40;;;;;;;17.67;39.03;102069.06;4991507;28;20132;-80
2023/05/18 11:02:34;;;;;;;3.13;1.40;;;;;;;17.60;39.25;102069.25;5011698;28;20069;-80
2023/05/18 11:05:04;;;;;;;3.55;1.50;;;;;;;17.84;36.48;102075.75;4987825;28;20058;-81
2023/05/18 11:07:32;;;;;;;2.35;1.60;;;;;;;18.05;37.34;102068.91;5004313;28;20046;-81
2023/05/18 11:10:09;;;;;;;5.75;1.65;;;;;;;18.40;38.42;102074.06;5008433;28;20492;-80
2023/05/18 11:12:40;;;;;;;5.47;2.55;;;;;;;18.56;35.89;102067.34;5008848;28;20038;-79
2023/05/18 11:15:07;;;;;;;5.10;1.50;;;;;;;18.55;36.29;102065.59;5008678;28;20046;-80
2023/05/18 11:17:36;;;;;;;5.05;2.67;;;;;;;18.55;36.11;102070.94;4987443;28;20137;-81
2023/05/18 11:20:11;;;;;;;2.67;1.63;;;;;;;18.38;37.58;102072.38;4997080;28;20411;-80
2023/05/18 11:22:44;;;;;;;5.07;2.05;;;;;;;16.99;37.42;102061.06;5027922;28;20452;-80
2023/05/18 11:25:43;;;;;;;5.20;1.80;;;;;;;17.61;39.61;102069.22;4987691;28;20062;-81
2023/05/18 11:28:17;;;;;;;6.07;1.80;;;;;;;17.44;38.31;102075.00;4977351;28;20038;-81
2023/05/18 11:31:16;;;;;;;4.82;1.50;;;;;;;17.72;38.62;102067.16;4989392;28;20527;-79
2023/05/18 11:33:43;;;;;;;6.07;1.75;;;;;;;17.92;37.52;102063.06;4980516;28;20053;-79
2023/05/18 11:36:13;;;;;;;3.80;1.60;;;;;;;17.88;38.19;102054.22;4972164;28;20519;-79
2023/05/18 11:38:54;;;;;;;5.47;1.42;;;;;;;18.22;36.36;102058.59;4965555;28;20119;-80
2023/05/18 11:41:31;;;;;;;9.05;2.30;;;;;;;17.49;37.24;102058.88;5018932;28;20507;-79
2023/05/18 11:44:02;;;;;;;4.82;1.80;;;;;;;16.93;37.92;102057.66;4999307;28;20054;-78
2023/05/18 11:46:29;;;;;;;7.65;2.55;;;;;;;17.41;38.49;102056.41;5017594;28;20084;-79
2023/05/18 11:48:56;;;;;;;4.50;1.23;;;;;;;18.09;37.89;102051.88;4990072;28;20046;-81
2023/05/18 11:51:27;;;;;;;3.08;1.70;;;;;;;18.02;35.60;102053.84;4985802;28;20855;-79
2023/05/18 11:53:53;;;;;;;4.47;1.23;;;;;;;18.25;37.82;102055.84;5023347;28;20176;-81
2023/05/18 11:56:20;;;;;;;4.05;1.60;;;;;;;18.23;37.12;102046.97;5018412;28;20582;-82
2023/05/18 11:59:11;;;;;;;5.47;1.92;;;;;;;18.19;36.39;102051.53;5002946;28;20172;-79
2023/05/18 12:01:40;;;;;;;15.43;2.88;;;;;;;18.39;36.81;102053.59;5004078;28;20033;-80
2023/05/18 12:04:09;;;;;;;1.92;1.23;;;;;;;18.31;37.19;102052.97;5002276;28;20037;-79
2023/05/18 12:06:37;;;;;;;3.15;1.80;;;;;;;18.38;37.71;102051.84;5016738;28;20042;-82
2023/05/18 12:09:06;;;;;;;2.78;1.27;;;;;;;18.41;38.02;102062.44;4990489;28;20058;-82
2023/05/18 12:11:33;;;;;;;8.95;2.28;;;;;;;18.11;36.90;102064.25;5003961;28;20049;-81
2023/05/18 12:14:01;;;;;;;5.70;1.98;;;;;;;17.98;37.69;102057.50;5006211;28;20046;-80
2023/05/18 12:16:28;;;;;;;5.07;1.80;;;;;;;17.32;38.76;102064.66;4990986;28;20522;-80
2023/05/18 12:18:56;;;;;;;4.10;1.80;;;;;;;17.35;39.12;102055.69;4988775;28;20042;-80
2023/05/18 12:21:26;;;;;;;4.80;1.60;;;;;;;17.27;40.33;102061.22;5006720;28;20050;-80
2023/05/18 12:23:59;;;;;;;7.57;1.63;;;;;;;17.13;39.43;102061.56;5005436;28;20042;-82
2023/05/18 12:26:31;;;;;;;3.75;1.75;;;;;;;17.15;38.72;102049.06;4989624;28;20042;-78
2023/05/18 12:29:01;;;;;;;4.72;1.50;;;;;;;17.44;39.31;102056.31;5012562;28;20754;-80
2023/05/18 12:31:30;;;;;;;5.03;1.50;;;;;;;17.77;39.01;102051.00;5008942;28;20038;-80
2023/05/18 12:33:57;;;;;;;6.78;2.58;;;;;;;18.03;38.52;102049.38;5006321;28;20042;-80
2023/05/18 12:36:26;;;;;;;2.53;1.25;;;;;;;18.10;37.87;102041.13;5004706;28;20037;-80
2023/05/18 12:38:54;;;;;;;10.15;1.92;;;;;;;18.49;36.77;102048.84;4992221;28;20096;-79
2023/05/18 12:41:28;;;;;;;6.65;1.58;;;;;;;18.71;35.75;102043.72;4989396;28;20505;-80
2023/05/18 12:43:58;;;;;;;4.78;1.67;;;;;;;18.12;35.24;102047.28;5006822;28;20030;-81
2023/05/18 12:46:24;;;;;;;7.00;1.67;;;;;;;17.80;37.18;102056.25;5027761;28;20098;-80
2023/05/18 12:48:57;;;;;;;3.13;1.27;;;;;;;17.51;37.50;102048.13;5005654;28;20109;-80
2023/05/18 12:51:29;;;;;;;4.50;1.30;;;;;;;17.51;38.61;102051.69;5005414;28;20586;-81
2023/05/18 12:53:56;;;;;;;4.75;1.48;;;;;;;17.27;38.91;102058.56;4991463;28;20041;-80
2023/05/18 12:56:27;;;;;;;2.97;1.13;;;;;;;17.19;39.72;102047.19;5016269;28;20038;-80
2023/05/18 12:58:58;;;;;;;6.22;1.75;;;;;;;17.06;38.91;102048.41;4996934;28;20103;-81
2023/05/18 13:01:25;;;;;;;4.05;1.58;;;;;;;17.01;39.97;102051.22;4995080;28;20102;-80
2023/05/18 13:03:57;;;;;;;3.85;1.60;;;;;;;17.03;37.73;102045.81;4982942;28;20671;-80
2023/05/18 13:06:24;;;;;;;2.80;1.60;;;;;;;17.17;37.88;102043.69;4992275;28;20424;-79
2023/05/18 13:08:54;;;;;;;3.40;1.50;;;;;;;17.43;38.09;102037.66;5009799;28;20129;-80
2023/05/18 13:11:27;;;;;;;4.13;1.42;;;;;;;17.48;37.67;102035.72;5012619;28;20092;-80
2023/05/18 13:14:01;;;;;;;4.07;1.30;;;;;;;17.80;37.06;102037.53;5001897;28;20136;-81
2023/05/18 13:16:28;;;;;;;;;;;;;;;17.42;36.95;102028.75;4996742;28;20065;-80
2023/05/18 13:19:04;;;;;;;3.25;1.75;;;;;;;17.53;38.05;102035.59;4999673;28;20302;-80
2023/05/18 13:21:32;;;;;;;4.32;1.65;;;;;;;17.72;36.94;102044.88;4993938;28;20041;-82
2023/05/18 13:24:00;;;;;;;3.83;1.58;;;;;;;17.72;37.46;102035.06;5010152;28;20045;-81
2023/05/18 13:26:27;;;;;;;15.90;2.78;;;;;;;17.71;38.20;102041.34;5011927;28;20048;-81
2023/05/18 13:28:56;;;;;;;3.97;1.63;;;;;;;17.17;36.44;102044.56;4984624;28;20080;-80
2023/05/18 13:31:24;;;;;;;3.25;1.60;;;;;;;16.86;36.97;102036.44;5001533;28;20040;-81
2023/05/18 13:33:51;;;;;;;6.63;1.77;;;;;;;17.18;37.27;102034.75;4996043;28;20064;-80
2023/05/18 13:36:18;;;;;;;3.22;1.50;;;;;;;17.36;37.04;102025.38;4990454;28;20049;-79
2023/05/18 13:38:45;;;;;;;3.95;1.33;;;;;;;17.51;36.52;102022.28;5011012;28;20521;-80
2023/05/18 13:41:13;;;;;;;3.25;1.73;;;;;;;17.56;35.87;102028.38;5011873;28;20121;-81
2023/05/18 13:43:41;;;;;;;1.92;1.15;;;;;;;17.55;36.74;102025.75;5011775;28;20404;-80
2023/05/18 13:46:08;;;;;;;3.78;1.52;;;;;;;17.77;36.34;102018.03;4996576;28;20038;-80
2023/05/18 13:48:35;;;;;;;5.57;1.65;;;;;;;17.95;36.10;102018.38;4992039;28;20400;-79
2023/05/18 13:51:02;;;;;;;3.85;1.33;;;;;;;17.44;37.16;102013.56;4989473;28;20042;-79
2023/05/18 13:53:29;;;;;;;29.90;5.07;;;;;;;17.43;38.03;102022.50;4975937;28;20058;-80
2023/05/18 13:55:56;;;;;;;7.18;2.50;;;;;;;17.19;36.95;102014.25;4978425;28;20216;-79
2023/05/18 13:58:23;;;;;;;4.75;2.88;;;;;;;16.99;37.58;102014.78;5000322;28;20447;-80
2023/05/18 14:00:53;;;;;;;4.20;2.20;;;;;;;17.20;38.86;102008.00;4981271;28;20426;-79
2023/05/18 14:03:20;;;;;;;7.32;2.00;;;;;;;17.10;37.79;102010.91;4994522;28;20041;-79
2023/05/18 14:05:53;;;;;;;4.32;1.48;;;;;;;17.50;38.68;102009.84;5022633;28;20109;-82
2023/05/18 14:08:26;;;;;;;3.83;1.58;;;;;;;17.72;38.94;102010.13;4982400;28;20039;-84
2023/05/18 14:10:58;;;;;;;2.95;1.77;;;;;;;17.77;37.26;101999.34;5016634;28;20056;-82
2023/05/18 14:13:29;;;;;;;3.15;1.33;;;;;;;17.79;37.20;102003.69;4994295;28;20081;-80
2023/05/18 14:15:56;;;;;;;4.80;1.92;;;;;;;17.77;36.41;102010.91;4986532;28;20042;-81
2023/05/18 14:18:23;;;;;;;7.50;1.67;;;;;;;17.76;36.92;102011.81;4986107;28;20035;-81
2023/05/18 14:20:50;;;;;;;5.78;1.75;;;;;;;17.82;35.95;102006.28;5006805;28;20033;-81
2023/05/18 14:23:17;;;;;;;2.67;1.38;;;;;;;17.93;35.92;101995.28;4998928;28;20054;-81
2023/05/18 14:25:44;;;;;;;3.85;1.48;;;;;;;17.86;36.27;102002.59;5007259;28;20038;-80
2023/05/18 14:28:12;;;;;;;2.70;1.35;;;;;;;17.87;36.14;102001.69;4974765;28;20042;-80
2023/05/18 14:30:39;;;;;;;5.18;1.88;;;;;;;17.87;36.96;102003.47;5006734;28;20657;-82
2023/05/18 14:33:06;;;;;;;6.10;1.45;;;;;;;17.68;36.88;101997.75;4985298;28;20049;-80
2023/05/18 14:35:32;;;;;;;2.45;1.50;;;;;;;17.88;37.36;102006.09;4985573;28;20045;-80
2023/05/18 14:38:01;;;;;;;16.08;3.03;;;;;;;17.65;36.72;102001.38;5000777;28;20044;-81
2023/05/18 14:40:28;;;;;;;24.20;3.92;;;;;;;17.51;38.68;102005.38;5002092;28;20034;-79
2023/05/18 14:42:55;;;;;;;5.15;2.15;;;;;;;17.49;39.41;102009.88;5006536;28;20046;-79
2023/05/18 14:45:22;;;;;;;3.00;1.70;;;;;;;17.56;38.71;102006.13;5017982;28;20038;-81